Terminal Aerodrome Forecast
Issued by NWS

Home | Current Version | Previous Version | Graphics & Text | Print | Product List | Glossary Off
Versions: 1 2 3 4 5 6 7 8 9 10 11 12 13 14 15 16 17 18 19 20

595
FTUS43 KLOT 241510 AAA
TAFDPA
TAF AMD
KDPA 241510Z 2415/2512 13009KT P6SM SCT250
     FM250100 13007KT P6SM SCT150 BKN250=

USA.gov is the U.S. government's official web portal to all federal, state and local government web resources and services.